Terminal Aerodrome Forecast
Issued by NWS

Current Version | Previous Version | Text Only | Print | Product List | Glossary Off
Versions: 1 2 3 4 5 6 7 8 9 10 11 12 13

000
FTUS41 KPBZ 260901 AAA
TAFHLG
TAF AMD
KHLG 260901Z 2609/2706 26006KT P6SM SCT060
      TEMPO 2610/2612 3SM BR
     FM270000 VRB03KT P6SM SKC=

USA.gov is the U.S. government's official web portal to all federal, state and local government web resources and services.